Current Weather Conditions: station 44139

sailwx.info

Wind from 320 at 15 knots gusting 19

Wave height 1.8 meters (5 feet), 9 second period

Air temperature 4.2° C
Water temperature 8.0° C

Last reported at 2014-Nov-29 04:00 UTC.
Time now 2014-Nov-29 05:08 UTC

Location: N 44°12' W 057°06'.
View on Google Maps.

See reports from other nearby stations

  
Tides and Currents Weather Stations Pressure Air Temp Water Temp Dewpoint Dewpoint Depression Visibility Wind Speed Wind Dir Waves Ship Positions
date/time (UTC)wind fromknots sea level pressurealtimeterstation pressurevisibilityair tempwater tempwave heightnotes
2014-Nov-29 04:00 320 15 gusting 19 4.2 8.0 1.8
2014-Nov-29 03:00 340 11 gusting 13 4.5 8.0 1.8
2014-Nov-29 02:00 360 13 gusting 17 4.4 8.1 1.9
2014-Nov-29 01:00 010 13 gusting 17 4.5 8.2 2.1
2014-Nov-29 00:00 020 11 gusting 15 4.2 8.3 2.3
2014-Nov-28 23:00 020 11 gusting 15 4.2 8.3 2.5
2014-Nov-28 22:00 030 7 gusting 9 3.8 8.3 2.9
2014-Nov-28 21:00 020 9 gusting 13 4.2 8.3 3.0
2014-Nov-28 20:00 010 7 gusting 11 4.3 8.3 3.2
2014-Nov-28 19:00 4.4
2014-Nov-28 18:00 350 5
2014-Nov-28 17:00 320 7 gusting 11 3.9 8.1 3.7
2014-Nov-28 16:00 340 11 gusting 15 3.5 8.0 4.0
2014-Nov-28 15:00 3.2 8.0 3.8
2014-Nov-28 14:00 340 13 gusting 15 3.3 8.1 4.4
2014-Nov-28 13:00 320 9 gusting 11 3.6 8.1 4.1
2014-Nov-28 12:00 330 9 gusting 15 3.5 8.2 4.1
2014-Nov-28 11:00 340 13 gusting 19 3.5 8.2 4.2
2014-Nov-28 10:00 330 13 gusting 17 3.9 8.2 4.5
2014-Nov-28 09:00 310 15 4.2
2014-Nov-28 08:00 290 17 gusting 21 4.5 8.2 4.7
2014-Nov-28 07:00 300 19 gusting 23 4.5 8.1 5.2
2014-Nov-28 06:00 290 19 gusting 27 5.0 8.1 5.4
2014-Nov-28 05:00 280 21 gusting 29 4.9 8.0 5.6
2014-Nov-28 04:00 290 21 gusting 27 5.8 8.0 5.6
2014-Nov-28 02:00 260 23 gusting 29 6.8 8.1 5.6
2014-Nov-28 01:00 260 23 gusting 31 7.3 8.2 4.8
2014-Nov-28 00:00 250 25 gusting 31 8.5 8.4 4.8
2014-Nov-27 23:00 240 25 gusting 31 9.5 8.7 4.4
2014-Nov-27 22:00 230 21 gusting 25 10.4 8.8 4.5
2014-Nov-27 21:00 230 21 gusting 25 11.1 8.8 4.2
2014-Nov-27 20:00 220 21 gusting 25 11.0 8.8 3.9
2014-Nov-27 19:00 220 19 gusting 25 11.9 8.7 3.8
2014-Nov-27 18:00 210 23 gusting 27 12.9 8.7 4.0
2014-Nov-27 17:00 200 25 gusting 33 13.7 8.6 3.7
2014-Nov-27 15:00 180 27 gusting 34 14.5 8.5 3.3
2014-Nov-27 14:00 180 25 gusting 31 14.1 8.5 3.0
2014-Nov-27 13:00 180 25 gusting 33 13.9 8.4 2.8
2014-Nov-27 12:00 180 25 gusting 31 13.8 8.4 2.7
2014-Nov-27 11:00 180 25 gusting 29 13.9 8.4 2.4
2014-Nov-27 10:00 180 21 gusting 23 13.2 8.5 2.4
2014-Nov-27 09:00 180 17 gusting 23 12.9 8.6 2.4
2014-Nov-27 08:00 110 13 gusting 15 10.2 8.6 2.3
2014-Nov-27 07:00 110 21 gusting 31 9.1 8.6 2.3
2014-Nov-27 06:00 090 17 gusting 23 7.7 8.5 2.2
2014-Nov-27 05:00 090 21 gusting 25 7.1 8.4 2.0